Aviation Digital Data Service (ADDS)

Output produced by METARs form (1056 UTC 23 June 2021)
found at http://www.aviationweather.gov/metar/data/
 
LFRN 231030Z AUTO 01009KT 340V050 9999 BKN021 OVC026 16/11 Q1022 NOSIG
TAF LFRN 230500Z 2306/2406 01010KT 9999 BKN025 
     PROB40 
     TEMPO 2306/2309 4000 RADZ BKN010 
     BECMG 2400/2403 VRB03KT 
     PROB30 
     TEMPO 2403/2406 0800 BCFG